Silver City, Texas
Current Conditions -  °F | °C
As of 1:53 AM on Monday 24 Nov 2014 (Local Time) from KCRS Reporting Station
Clear Clear  
Wind Chill: 50°   Ceiling: Unl
Heat Index: 50°   Visibility: 10mi
Dew Point: 37°   Wind: 12mph
Humidity: 61%   Direction: 330°NNW
Pressure: 29.89"   Gusts: NA
Location:  31.9458°N, 96.5713°W
Report Text: KCRS 240753Z AUTO 33010KT 10SM CLR 10/03 A2989 RMK AO2 SLP119 T01000028
Loading
Personal Weather Stations






























Interactive Weather Map New forecast layout! Learn more

10-Day Weather Forecast

Advertisements
Track Severe Weather on mobile